Time;durP1;ratioP1;P1;durP2;ratioP2;P2;SDS_P1;SDS_P2;PMS_P1;PMS_P2;Temp;Humidity;BMP_temperature;BMP_pressure;BME280_temperature;BME280_humidity;BME280_pressure;Samples;Min_cycle;Max_cycle;Signal;HPM_P1;HPM_P2
2023/02/07 00:01:19;;;;;;;15.50;10.25;;;-3.70;93.90;;;;;;5053965;28;20035;-78
2023/02/07 00:03:45;;;;;;;13.00;9.05;;;-3.70;93.80;;;;;;5051197;28;20021;-78
2023/02/07 00:06:18;;;;;;;14.45;9.68;;;-3.60;93.90;;;;;;5053799;28;20021;-77
2023/02/07 00:08:45;;;;;;;12.68;9.57;;;-3.60;93.80;;;;;;5053528;28;20045;-78
2023/02/07 00:11:15;;;;;;;15.65;10.75;;;-3.60;93.80;;;;;;5053706;28;20025;-79
2023/02/07 00:13:46;;;;;;;10.73;7.65;;;-3.60;93.80;;;;;;5052518;28;20027;-79
2023/02/07 00:16:12;;;;;;;12.32;8.95;;;-3.60;93.70;;;;;;5048365;28;20107;-79
2023/02/07 00:18:39;;;;;;;12.65;9.20;;;-3.70;93.70;;;;;;5050134;28;20461;-77
2023/02/07 00:21:10;;;;;;;11.93;9.23;;;-3.70;93.80;;;;;;5053860;28;20025;-78
2023/02/07 00:23:36;;;;;;;14.32;10.98;;;-3.60;93.90;;;;;;5054017;28;20024;-77
2023/02/07 00:26:03;;;;;;;14.95;10.85;;;-3.60;93.80;;;;;;5054649;28;20542;-79
2023/02/07 00:28:29;;;;;;;14.68;9.18;;;-3.60;93.90;;;;;;5057137;28;20028;-78
2023/02/07 00:31:31;;;;;;;12.27;9.73;;;-3.60;93.90;;;;;;5058268;28;20037;-78
2023/02/07 00:34:01;;;;;;;14.52;9.70;;;-3.60;93.90;;;;;;5048746;28;20059;-79
2023/02/07 00:36:29;;;;;;;10.82;8.48;;;-3.50;93.80;;;;;;5059854;28;20086;-79
2023/02/07 00:39:03;;;;;;;11.57;8.32;;;-3.50;93.60;;;;;;5060466;28;20033;-79
2023/02/07 00:41:29;;;;;;;14.82;9.93;;;-3.60;93.70;;;;;;5056946;28;20045;-78
2023/02/07 00:43:55;;;;;;;13.67;9.60;;;-3.70;93.80;;;;;;5052622;28;20148;-77
2023/02/07 00:46:21;;;;;;;12.32;11.02;;;-3.70;93.80;;;;;;5035590;28;20021;-77
2023/02/07 00:48:47;;;;;;;16.92;10.95;;;-3.70;93.80;;;;;;5051866;28;20029;-78
2023/02/07 00:51:13;;;;;;;14.88;10.85;;;-3.70;93.90;;;;;;5054300;28;20033;-78
2023/02/07 00:53:40;;;;;;;12.40;9.05;;;-3.60;93.90;;;;;;5053288;28;20107;-80
2023/02/07 00:56:07;;;;;;;13.00;8.63;;;-3.60;93.70;;;;;;5035959;28;20565;-79
2023/02/07 00:58:33;;;;;;;15.65;11.05;;;-3.70;93.60;;;;;;5035162;28;20029;-78
2023/02/07 01:01:00;;;;;;;14.48;9.55;;;-3.70;93.70;;;;;;5053069;28;20071;-78
2023/02/07 01:03:26;;;;;;;15.02;10.48;;;-3.70;93.80;;;;;;5052790;28;20013;-79
2023/02/07 01:05:52;;;;;;;17.17;11.77;;;-3.70;93.90;;;;;;5034247;28;20128;-78
2023/02/07 01:08:18;;;;;;;16.40;10.65;;;-3.60;93.90;;;;;;5052656;28;20040;-79
2023/02/07 01:10:45;;;;;;;14.52;8.35;;;-3.50;93.70;;;;;;5052844;28;20029;-79
2023/02/07 01:13:12;;;;;;;12.88;8.40;;;-3.60;93.40;;;;;;5052905;28;20114;-78
2023/02/07 01:15:40;;;;;;;16.52;9.25;;;-3.80;93.40;;;;;;5053019;28;20463;-78
2023/02/07 01:18:07;;;;;;;13.15;9.35;;;-3.80;93.60;;;;;;5052727;28;20083;-79
2023/02/07 01:20:33;;;;;;;16.23;11.25;;;-3.80;93.80;;;;;;5052540;28;20037;-78
2023/02/07 01:22:58;;;;;;;10.82;9.55;;;-3.80;93.90;;;;;;5051543;28;20106;-78
2023/02/07 01:25:25;;;;;;;14.25;10.00;;;-3.70;93.80;;;;;;5052534;28;20021;-77
2023/02/07 01:27:51;;;;;;;13.68;8.48;;;-3.60;93.80;;;;;;5052543;28;20375;-78
2023/02/07 01:30:17;;;;;;;13.88;9.70;;;-3.60;93.80;;;;;;5052595;28;20037;-77
2023/02/07 01:32:43;;;;;;;14.32;8.60;;;-3.60;93.60;;;;;;5052798;28;20418;-77
2023/02/07 01:35:09;;;;;;;10.95;8.82;;;-3.50;93.70;;;;;;5034412;28;20024;-77
2023/02/07 01:37:34;;;;;;;13.85;9.80;;;-3.50;93.50;;;;;;5051520;28;20017;-77
2023/02/07 01:40:00;;;;;;;13.15;8.63;;;-3.60;93.50;;;;;;5052132;28;20100;-78
2023/02/07 01:42:28;;;;;;;11.70;9.00;;;-3.60;93.20;;;;;;5052202;28;20021;-77
2023/02/07 01:44:53;;;;;;;12.30;9.55;;;-3.70;93.30;;;;;;5051874;28;20024;-78
2023/02/07 01:47:23;;;;;;;13.23;9.35;;;-3.70;93.50;;;;;;5034291;28;20025;-78
2023/02/07 01:49:53;;;;;;;12.25;8.90;;;-3.70;93.40;;;;;;5052021;28;20025;-77
2023/02/07 01:52:24;;;;;;;16.30;9.63;;;-3.70;93.30;;;;;;5034281;28;20075;-78
2023/02/07 01:54:54;;;;;;;12.00;8.93;;;-3.80;93.30;;;;;;5033514;28;20075;-78
2023/02/07 01:57:21;;;;;;;14.95;10.27;;;-3.80;93.30;;;;;;5052015;28;20096;-78
2023/02/07 01:59:49;;;;;;;12.05;9.23;;;-3.90;93.20;;;;;;5051571;28;20411;-79
2023/02/07 02:02:18;;;;;;;11.18;9.13;;;-4.00;93.40;;;;;;5051751;28;20028;-79
2023/02/07 02:04:44;;;;;;;14.23;8.27;;;-3.90;93.60;;;;;;5051781;28;20017;-79
2023/02/07 02:07:12;;;;;;;16.02;9.30;;;-3.80;93.60;;;;;;5033803;28;20455;-79
2023/02/07 02:09:38;;;;;;;14.55;9.90;;;-3.90;93.60;;;;;;5050720;28;20049;-77
2023/02/07 02:12:07;;;;;;;14.18;9.45;;;-3.90;93.50;;;;;;5050088;28;20029;-79
2023/02/07 02:14:36;;;;;;;13.25;8.65;;;-3.80;93.50;;;;;;5051856;28;20029;-79
2023/02/07 02:17:25;;;;;;;13.85;10.23;;;-3.80;93.40;;;;;;5051540;28;20032;-78
2023/02/07 02:20:15;;;;;;;14.75;10.10;;;-3.80;93.40;;;;;;5041604;28;20041;-77
2023/02/07 02:23:02;;;;;;;17.42;11.55;;;-3.80;93.50;;;;;;5051517;28;20103;-77
2023/02/07 02:25:56;;;;;;;13.25;8.85;;;-3.60;93.50;;;;;;5032537;28;20036;-78
2023/02/07 02:28:56;;;;;;;13.77;8.55;;;-3.60;93.40;;;;;;5051284;28;20028;-78
2023/02/07 02:31:30;;;;;;;15.55;11.60;;;-3.50;93.40;;;;;;5051325;28;20021;-78
2023/02/07 02:34:06;;;;;;;12.77;8.63;;;-3.50;93.30;;;;;;5051541;28;20031;-79
2023/02/07 02:36:37;;;;;;;13.25;9.55;;;-3.50;93.20;;;;;;5051246;28;20017;-78
2023/02/07 02:39:27;;;;;;;12.27;9.02;;;-3.50;93.10;;;;;;5033278;28;20036;-78
2023/02/07 02:42:22;;;;;;;12.05;8.75;;;-3.40;93.00;;;;;;5049758;28;20032;-78
2023/02/07 02:44:57;;;;;;;13.55;7.85;;;-3.40;93.00;;;;;;5040298;28;20090;-77
2023/02/07 02:47:25;;;;;;;11.73;8.90;;;-3.50;92.70;;;;;;5051303;28;20021;-78
2023/02/07 02:49:51;;;;;;;;;;;-3.60;92.70;;;;;;5051740;28;20021;-77
2023/02/07 02:52:16;;;;;;;12.43;8.25;;;-3.60;92.80;;;;;;5051467;28;19911;-78
2023/02/07 02:54:42;;;;;;;13.13;9.57;;;-3.60;92.90;;;;;;5033287;28;20036;-78
2023/02/07 02:57:23;;;;;;;14.70;8.63;;;-3.60;92.90;;;;;;5051158;28;20479;-77
2023/02/07 02:59:58;;;;;;;12.43;8.70;;;-3.60;92.90;;;;;;5050151;28;20104;-79
2023/02/07 03:02:35;;;;;;;9.93;7.55;;;-3.60;92.90;;;;;;5051265;28;20060;-79
2023/02/07 03:05:12;;;;;;;10.52;8.35;;;-3.50;92.90;;;;;;5051375;28;20056;-78
2023/02/07 03:07:51;;;;;;;13.57;9.63;;;-3.50;92.90;;;;;;5037907;28;20025;-78
2023/02/07 03:10:39;;;;;;;10.00;7.57;;;-3.50;92.80;;;;;;5051099;28;20536;-78
2023/02/07 03:13:40;;;;;;;14.18;8.55;;;-3.50;92.70;;;;;;5054364;28;20051;-78
2023/02/07 03:16:23;;;;;;;10.23;8.52;;;-3.60;92.70;;;;;;5026556;28;20021;-79
2023/02/07 03:18:52;;;;;;;14.02;9.07;;;-3.60;92.70;;;;;;5054548;28;20032;-80
2023/02/07 03:21:53;;;;;;;11.80;7.78;;;-3.70;92.60;;;;;;5054756;28;20144;-78
2023/02/07 03:24:31;;;;;;;15.40;8.70;;;-3.80;92.80;;;;;;5049455;28;20037;-78
2023/02/07 03:27:01;;;;;;;18.45;10.25;;;-3.90;92.80;;;;;;5047421;28;20040;-77
2023/02/07 03:29:29;;;;;;;14.43;8.85;;;-3.90;92.90;;;;;;5033485;28;20048;-79
2023/02/07 03:31:59;;;;;;;14.85;8.70;;;-3.80;93.40;;;;;;5054875;28;20491;-79
2023/02/07 03:34:57;;;;;;;14.20;9.30;;;-3.70;93.10;;;;;;5036891;28;20028;-79
2023/02/07 03:37:33;;;;;;;12.85;8.57;;;-3.60;93.10;;;;;;5047173;28;20456;-79
2023/02/07 03:39:59;;;;;;;11.10;8.70;;;-3.60;92.90;;;;;;5054392;28;20123;-78
2023/02/07 03:42:34;;;;;;;11.15;8.60;;;-3.60;92.90;;;;;;5054582;28;20036;-79
2023/02/07 03:45:01;;;;;;;15.85;10.38;;;-3.50;92.90;;;;;;5036517;28;20044;-79
2023/02/07 03:47:28;;;;;;;;;;;-3.50;92.90;;;;;;5054884;28;20030;-78
2023/02/07 03:49:54;;;;;;;12.82;9.25;;;-3.50;92.80;;;;;;5054742;28;19950;-79
2023/02/07 03:52:20;;;;;;;11.88;9.02;;;-3.50;92.70;;;;;;5036424;28;20024;-78
2023/02/07 03:54:46;;;;;;;15.63;10.52;;;-3.50;92.60;;;;;;5036314;28;20491;-77
2023/02/07 03:57:12;;;;;;;11.82;8.35;;;-3.60;92.60;;;;;;5036051;28;20029;-79
2023/02/07 03:59:38;;;;;;;12.57;8.45;;;-3.60;92.60;;;;;;5036210;28;20039;-78
2023/02/07 04:02:04;;;;;;;13.05;8.88;;;-3.60;92.50;;;;;;5053926;28;20036;-78
2023/02/07 04:04:30;;;;;;;14.25;10.77;;;-3.50;92.60;;;;;;5053530;28;20021;-79
2023/02/07 04:06:55;;;;;;;13.35;9.57;;;-3.60;92.50;;;;;;5035840;28;20032;-78
2023/02/07 04:09:21;;;;;;;12.85;8.48;;;-3.60;92.50;;;;;;5053839;28;20037;-76
2023/02/07 04:11:51;;;;;;;10.50;7.43;;;-3.50;92.50;;;;;;5053875;28;20113;-77
2023/02/07 04:14:19;;;;;;;10.68;7.82;;;-3.60;92.20;;;;;;5053498;28;20021;-76
2023/02/07 04:16:45;;;;;;;11.85;8.38;;;-3.70;92.20;;;;;;5054078;28;20040;-78
2023/02/07 04:19:11;;;;;;;11.45;9.10;;;-3.80;92.30;;;;;;5053869;28;20407;-79
2023/02/07 04:21:37;;;;;;;14.27;6.18;;;-3.80;92.50;;;;;;5052460;28;20137;-79
2023/02/07 04:24:03;;;;;;;11.93;9.18;;;-3.70;92.60;;;;;;5053453;28;20052;-79
2023/02/07 04:26:29;;;;;;;13.35;8.25;;;-3.70;92.40;;;;;;5035478;28;20021;-78
2023/02/07 04:28:55;;;;;;;9.10;7.53;;;-3.70;92.30;;;;;;5053444;28;20495;-80
2023/02/07 04:31:21;;;;;;;14.15;8.15;;;-3.70;92.30;;;;;;5053724;28;20079;-79
2023/02/07 04:33:47;;;;;;;13.23;8.55;;;-3.60;92.30;;;;;;5053730;28;20656;-79
2023/02/07 04:36:13;;;;;;;12.90;7.28;;;-3.60;92.30;;;;;;5036688;28;20119;-78
2023/02/07 04:38:39;;;;;;;10.60;7.47;;;-3.60;92.20;;;;;;5052395;28;20074;-78
2023/02/07 04:41:06;;;;;;;9.32;7.20;;;-3.60;92.20;;;;;;5053091;28;20040;-78
2023/02/07 04:43:33;;;;;;;13.13;7.50;;;-3.50;92.10;;;;;;5052991;28;20157;-78
2023/02/07 04:45:59;;;;;;;14.00;8.10;;;-3.50;92.10;;;;;;5053084;28;20033;-79
2023/02/07 04:48:25;;;;;;;11.65;8.80;;;-3.50;92.00;;;;;;5053045;28;20021;-80
2023/02/07 04:50:51;;;;;;;10.98;8.63;;;-3.50;91.90;;;;;;5053079;28;20471;-80
2023/02/07 04:53:17;;;;;;;10.90;7.30;;;-3.60;92.00;;;;;;5051767;28;20032;-80
2023/02/07 04:55:51;;;;;;;12.77;8.38;;;-3.60;92.00;;;;;;5052882;28;20032;-79
2023/02/07 04:58:18;;;;;;;15.52;8.75;;;-3.70;92.00;;;;;;5052830;28;20021;-79
2023/02/07 05:00:44;;;;;;;15.20;8.70;;;-3.70;92.00;;;;;;5052653;28;20196;-78
2023/02/07 05:03:10;;;;;;;10.07;8.07;;;-3.70;92.10;;;;;;5052800;28;20027;-79
2023/02/07 05:05:41;;;;;;;11.43;8.90;;;-3.70;92.00;;;;;;5052569;28;20123;-79
2023/02/07 05:08:08;;;;;;;14.15;9.80;;;-3.60;92.10;;;;;;5052523;28;20639;-80
2023/02/07 05:10:33;;;;;;;14.10;9.45;;;-3.60;92.10;;;;;;5051633;28;20507;-79
2023/02/07 05:13:00;;;;;;;14.23;8.80;;;-3.60;92.10;;;;;;5034430;28;20033;-78
2023/02/07 05:15:25;;;;;;;11.48;8.00;;;-3.50;92.10;;;;;;5052307;28;20048;-80
2023/02/07 05:17:51;;;;;;;13.38;7.63;;;-3.60;91.80;;;;;;5034454;28;20063;-79
2023/02/07 05:20:18;;;;;;;11.60;9.02;;;-3.70;91.70;;;;;;5052120;28;20041;-78
2023/02/07 05:22:44;;;;;;;15.25;9.75;;;-3.70;91.80;;;;;;5052416;28;20047;-80
2023/02/07 05:25:10;;;;;;;15.18;8.90;;;-3.80;91.90;;;;;;5052397;28;20029;-79
2023/02/07 05:27:36;;;;;;;13.65;7.95;;;-3.70;92.00;;;;;;5051551;28;20021;-79
2023/02/07 05:30:03;;;;;;;10.52;8.20;;;-3.70;92.10;;;;;;5052194;28;20033;-80
2023/02/07 05:35:13;;;;;;;14.93;8.20;;;-3.60;92.10;;;;;;5042212;28;20388;-78
2023/02/07 05:37:39;;;;;;;11.85;7.32;;;-3.60;91.90;;;;;;5042680;28;20033;-78
2023/02/07 05:40:05;;;;;;;13.48;8.52;;;-3.50;91.90;;;;;;5043104;28;20108;-78
2023/02/07 05:42:31;;;;;;;16.25;9.82;;;-3.50;91.90;;;;;;5033832;28;20476;-78
2023/02/07 05:44:57;;;;;;;12.88;9.57;;;-3.50;91.90;;;;;;5041949;28;20030;-78
2023/02/07 05:47:23;;;;;;;12.60;8.25;;;-3.50;91.90;;;;;;5040508;28;20017;-77
2023/02/07 05:49:49;;;;;;;14.23;9.68;;;-3.40;91.80;;;;;;5037055;28;20373;-79
2023/02/07 05:52:15;;;;;;;15.88;9.55;;;-3.50;91.60;;;;;;5042775;28;20032;-78
2023/02/07 05:54:40;;;;;;;13.15;8.88;;;-3.40;91.70;;;;;;5037067;28;20021;-76
2023/02/07 05:57:06;;;;;;;14.43;7.47;;;-3.40;91.70;;;;;;5049061;28;20514;-79
2023/02/07 05:59:32;;;;;;;13.43;9.15;;;-3.50;91.30;;;;;;5023690;28;20036;-79
2023/02/07 06:01:58;;;;;;;17.05;8.52;;;-3.60;91.50;;;;;;5034807;28;20040;-78
2023/02/07 06:04:24;;;;;;;14.07;9.98;;;-3.50;91.70;;;;;;5051474;28;20065;-76
2023/02/07 06:06:50;;;;;;;12.43;9.80;;;-3.40;91.70;;;;;;5051001;28;20025;-79
2023/02/07 06:09:16;;;;;;;14.52;8.85;;;-3.40;91.60;;;;;;5045739;28;20068;-80
2023/02/07 06:11:41;;;;;;;14.90;9.35;;;-3.40;91.60;;;;;;5045898;28;20024;-78
2023/02/07 06:14:07;;;;;;;11.63;9.43;;;-3.30;91.50;;;;;;5037226;28;20040;-79
2023/02/07 06:16:33;;;;;;;13.35;8.25;;;-3.40;91.30;;;;;;5051582;28;20079;-78
2023/02/07 06:19:00;;;;;;;16.88;9.50;;;-3.50;91.00;;;;;;5043312;28;20021;-79
2023/02/07 06:21:26;;;;;;;13.55;8.75;;;-3.60;91.20;;;;;;5031350;28;20036;-82
2023/02/07 06:23:52;;;;;;;11.55;8.38;;;-3.60;91.20;;;;;;5050817;28;20025;-79
2023/02/07 06:26:18;;;;;;;14.43;10.32;;;-3.60;91.40;;;;;;5035675;28;20039;-80
2023/02/07 06:28:43;;;;;;;11.65;9.63;;;-3.60;91.50;;;;;;5033478;28;20060;-78
2023/02/07 06:31:09;;;;;;;16.20;10.20;;;-3.50;91.60;;;;;;5042745;28;20025;-79
2023/02/07 06:33:35;;;;;;;12.00;9.30;;;-3.50;91.50;;;;;;5029659;28;20377;-78
2023/02/07 06:36:01;;;;;;;11.02;8.80;;;-3.40;91.50;;;;;;5046865;28;20060;-80
2023/02/07 06:38:27;;;;;;;14.43;11.07;;;-3.30;91.40;;;;;;5046924;28;20272;-78
2023/02/07 06:40:53;;;;;;;12.73;10.05;;;-3.30;91.40;;;;;;5046276;28;20075;-79
2023/02/07 06:43:19;;;;;;;12.60;8.82;;;-3.30;91.20;;;;;;5043135;28;20093;-78
2023/02/07 06:45:45;;;;;;;13.15;9.27;;;-3.30;91.20;;;;;;5047084;28;20021;-78
2023/02/07 06:48:11;;;;;;;9.10;7.07;;;-3.30;91.00;;;;;;5046874;28;20021;-79
2023/02/07 06:50:37;;;;;;;11.95;8.85;;;-3.40;91.00;;;;;;5050454;28;20388;-77
2023/02/07 06:53:03;;;;;;;14.60;8.82;;;-3.50;91.10;;;;;;5048427;28;20041;-78
2023/02/07 06:55:30;;;;;;;15.65;9.73;;;-3.50;91.20;;;;;;5049463;28;20022;-78
2023/02/07 06:57:56;;;;;;;;;;;-3.50;91.00;;;;;;5050495;28;20137;-78
2023/02/07 07:00:23;;;;;;;16.27;9.98;;;-3.40;91.20;;;;;;5050224;28;20003;-79
2023/02/07 07:02:50;;;;;;;11.57;9.18;;;-3.40;91.00;;;;;;5050581;28;20021;-78
2023/02/07 07:05:16;;;;;;;13.82;9.52;;;-3.40;91.10;;;;;;5046201;28;20052;-78
2023/02/07 07:07:42;;;;;;;14.20;10.38;;;-3.40;91.10;;;;;;5050250;28;20028;-79
2023/02/07 07:10:08;;;;;;;12.23;9.80;;;-3.30;91.10;;;;;;5033582;28;20482;-79
2023/02/07 07:12:33;;;;;;;14.60;9.13;;;-3.30;91.00;;;;;;5036191;28;20029;-79
2023/02/07 07:14:59;;;;;;;14.20;9.68;;;-3.30;91.00;;;;;;5031511;28;20055;-79
2023/02/07 07:17:25;;;;;;;11.98;9.07;;;-3.30;91.10;;;;;;5041594;28;20393;-79
2023/02/07 07:19:51;;;;;;;13.68;9.90;;;-3.20;91.10;;;;;;5050523;28;20530;-78
2023/02/07 07:22:19;;;;;;;11.80;7.82;;;-3.20;91.00;;;;;;5036102;28;20188;-79
2023/02/07 07:24:45;;;;;;;13.50;8.13;;;-3.20;90.90;;;;;;5054896;28;20021;-79
2023/02/07 07:27:11;;;;;;;11.05;8.32;;;-3.20;90.80;;;;;;5054522;28;20131;-81
2023/02/07 07:29:37;;;;;;;13.02;9.20;;;-3.30;90.60;;;;;;5054421;28;20123;-79
2023/02/07 07:32:03;;;;;;;12.80;8.82;;;-3.30;90.60;;;;;;5054615;28;20475;-80
2023/02/07 07:34:29;;;;;;;15.25;9.70;;;-3.30;90.70;;;;;;5054526;28;20033;-79
2023/02/07 07:36:55;;;;;;;13.10;8.60;;;-3.30;90.80;;;;;;5054500;28;20472;-77
2023/02/07 07:39:25;;;;;;;11.55;8.48;;;-3.20;90.90;;;;;;5053588;28;20151;-78
2023/02/07 07:41:51;;;;;;;13.75;9.52;;;-3.10;90.80;;;;;;5054453;28;20033;-78
2023/02/07 07:44:17;;;;;;;7.97;5.57;;;-3.20;90.60;;;;;;5054320;28;20036;-78
2023/02/07 07:46:42;;;;;;;14.95;10.15;;;-3.10;90.70;;;;;;5054532;28;20111;-77
2023/02/07 07:49:09;;;;;;;14.10;9.02;;;-3.10;90.60;;;;;;5035717;28;20021;-79
2023/02/07 07:51:35;;;;;;;16.90;9.52;;;-3.10;90.60;;;;;;5036520;28;20029;-78
2023/02/07 07:54:01;;;;;;;16.52;9.13;;;-3.10;90.60;;;;;;5053860;28;20017;-77
2023/02/07 07:56:29;;;;;;;14.50;8.10;;;-3.10;90.60;;;;;;5054130;28;20028;-77
2023/02/07 07:58:55;;;;;;;15.48;11.00;;;-3.10;90.60;;;;;;5053221;28;20361;-78
2023/02/07 08:01:21;;;;;;;13.90;9.95;;;-3.00;90.60;;;;;;5035900;28;20037;-79
2023/02/07 08:03:47;;;;;;;13.57;9.88;;;-3.00;90.60;;;;;;5052964;28;20037;-80
2023/02/07 08:06:13;;;;;;;16.05;10.40;;;-3.00;90.50;;;;;;5053684;28;20025;-79
2023/02/07 08:08:39;;;;;;;12.07;7.72;;;-2.90;90.50;;;;;;5053796;28;20095;-78
2023/02/07 08:11:07;;;;;;;18.80;9.57;;;-2.90;90.30;;;;;;5034904;28;20035;-78
2023/02/07 08:13:34;;;;;;;14.45;9.45;;;-3.00;90.20;;;;;;5053891;28;20017;-76
2023/02/07 08:16:01;;;;;;;16.63;10.02;;;-3.00;90.40;;;;;;5035734;28;20082;-78
2023/02/07 08:18:27;;;;;;;12.02;8.35;;;-3.00;90.40;;;;;;5042770;28;20017;-79
2023/02/07 08:20:53;;;;;;;16.08;9.13;;;-2.90;90.40;;;;;;5052006;28;20048;-78
2023/02/07 08:23:18;;;;;;;12.68;9.15;;;-2.80;90.40;;;;;;5053629;28;20017;-79
2023/02/07 08:25:45;;;;;;;14.38;9.73;;;-2.80;90.20;;;;;;5053880;28;20044;-78
2023/02/07 08:28:12;;;;;;;16.20;9.02;;;-2.80;90.00;;;;;;5052401;28;20017;-78
2023/02/07 08:30:38;;;;;;;15.83;11.77;;;-2.80;89.90;;;;;;5053700;28;20101;-79
2023/02/07 08:33:04;;;;;;;17.17;10.02;;;-2.90;89.80;;;;;;5053421;28;20108;-78
2023/02/07 08:35:31;;;;;;;10.93;8.57;;;-2.90;90.30;;;;;;5047532;28;20029;-78
2023/02/07 08:37:57;;;;;;;12.98;8.98;;;-2.90;90.00;;;;;;5053376;28;20039;-77
2023/02/07 08:40:24;;;;;;;13.48;8.88;;;-2.90;90.00;;;;;;5035203;28;20457;-79
2023/02/07 08:42:50;;;;;;;16.48;10.13;;;-2.80;89.90;;;;;;5053063;28;20031;-79
2023/02/07 08:45:16;;;;;;;14.27;8.05;;;-2.70;89.60;;;;;;5053132;28;20531;-79
2023/02/07 08:47:43;;;;;;;15.63;8.37;;;-2.70;89.00;;;;;;5052326;28;20035;-79
2023/02/07 08:50:11;;;;;;;14.75;8.73;;;-2.80;88.70;;;;;;5052967;28;20025;-78
2023/02/07 08:52:37;;;;;;;11.55;7.85;;;-2.90;88.80;;;;;;5052891;28;20381;-79
2023/02/07 08:55:03;;;;;;;13.15;8.50;;;-2.80;88.80;;;;;;5034965;28;20104;-79
2023/02/07 08:57:29;;;;;;;26.85;9.55;;;-2.70;88.80;;;;;;5051954;28;20096;-79
2023/02/07 08:59:55;;;;;;;14.35;8.73;;;-2.70;88.70;;;;;;5052778;28;20064;-78
2023/02/07 09:02:21;;;;;;;12.60;7.72;;;-2.60;88.70;;;;;;5033357;28;20036;-78
2023/02/07 09:04:47;;;;;;;13.57;7.55;;;-2.50;88.30;;;;;;5052943;28;20765;-79
2023/02/07 09:07:13;;;;;;;12.20;7.03;;;-2.50;87.70;;;;;;5052899;28;20016;-79
2023/02/07 09:09:39;;;;;;;9.05;6.68;;;-2.50;87.80;;;;;;5051828;28;20071;-78
2023/02/07 09:12:06;;;;;;;13.35;7.15;;;-2.50;87.70;;;;;;5052881;28;20415;-79
2023/02/07 09:14:32;;;;;;;8.60;6.60;;;-2.50;87.60;;;;;;5034863;28;20028;-78
2023/02/07 09:16:58;;;;;;;13.95;7.05;;;-2.40;87.20;;;;;;5053550;28;20069;-80
2023/02/07 09:19:24;;;;;;;11.38;6.78;;;-2.40;87.30;;;;;;5053703;28;20052;-79
2023/02/07 09:21:50;;;;;;;9.48;7.10;;;-2.40;86.70;;;;;;5054301;28;20441;-79
2023/02/07 09:24:16;;;;;;;17.55;8.48;;;-2.30;87.10;;;;;;5054716;28;20060;-78
2023/02/07 09:26:42;;;;;;;14.40;8.00;;;-2.30;86.80;;;;;;5054858;28;20025;-79
2023/02/07 09:29:12;;;;;;;11.95;7.28;;;-2.30;86.60;;;;;;5060470;28;20044;-79
2023/02/07 09:31:38;;;;;;;13.60;8.15;;;-2.20;86.70;;;;;;5058499;28;20021;-76
2023/02/07 09:34:04;;;;;;;9.48;7.07;;;-2.20;86.60;;;;;;5054509;28;20410;-79
2023/02/07 09:36:31;;;;;;;11.48;7.80;;;-2.00;86.00;;;;;;5034583;28;20120;-79
2023/02/07 09:38:58;;;;;;;10.50;6.55;;;-2.00;85.00;;;;;;5053870;28;20403;-80
2023/02/07 09:42:01;;;;;;;9.03;6.70;;;-2.00;84.80;;;;;;5052439;28;20503;-77
2023/02/07 09:44:54;;;;;;;9.55;7.18;;;-2.10;84.80;;;;;;5051814;28;20131;-77
2023/02/07 09:47:23;;;;;;;13.57;7.32;;;-2.20;85.00;;;;;;5005569;28;20396;-79
2023/02/07 09:50:00;;;;;;;10.00;7.45;;;-2.30;85.30;;;;;;5052047;28;20021;-79
2023/02/07 09:52:45;;;;;;;14.45;7.38;;;-2.20;85.60;;;;;;5020682;28;20392;-78
2023/02/07 09:55:21;;;;;;;11.15;7.50;;;-2.30;85.60;;;;;;5051817;28;20021;-78
2023/02/07 09:57:59;;;;;;;13.88;9.88;;;-2.30;85.70;;;;;;5034012;28;20024;-78
2023/02/07 10:00:31;;;;;;;11.02;6.43;;;-2.30;85.50;;;;;;5051604;28;20032;-79
2023/02/07 10:03:05;;;;;;;12.90;7.63;;;-2.50;85.20;;;;;;5033969;28;20033;-78
2023/02/07 10:05:44;;;;;;;10.27;7.32;;;-2.60;85.70;;;;;;5051671;28;20088;-78
2023/02/07 10:08:15;;;;;;;12.02;7.05;;;-2.60;86.00;;;;;;5050368;28;20056;-78
2023/02/07 10:11:16;;;;;;;11.50;7.43;;;-2.50;85.90;;;;;;5033329;28;20024;-80
2023/02/07 10:14:07;;;;;;;12.50;6.97;;;-2.50;86.00;;;;;;5029528;28;20029;-79
2023/02/07 10:17:10;;;;;;;10.40;7.15;;;-2.50;85.80;;;;;;5051300;28;20029;-79
2023/02/07 10:20:04;;;;;;;15.00;6.90;;;-2.50;85.70;;;;;;5038350;28;20017;-78
2023/02/07 10:22:51;;;;;;;15.52;7.80;;;-2.40;85.90;;;;;;5051400;28;20438;-79
2023/02/07 10:25:38;;;;;;;12.77;7.97;;;-2.40;86.00;;;;;;5038448;28;20017;-78
2023/02/07 10:28:13;;;;;;;9.75;6.80;;;-2.30;86.20;;;;;;5051201;28;20032;-79
2023/02/07 10:30:49;;;;;;;11.80;6.90;;;-2.30;85.70;;;;;;5051043;28;20025;-78
2023/02/07 10:33:20;;;;;;;11.15;8.05;;;-2.40;85.40;;;;;;5051182;28;20023;-79
2023/02/07 10:35:46;;;;;;;17.75;7.22;;;-2.50;85.80;;;;;;5033390;28;20032;-79
2023/02/07 10:38:41;;;;;;;12.30;7.80;;;-2.50;86.10;;;;;;5051219;28;20079;-78
2023/02/07 10:41:19;;;;;;;12.43;8.05;;;-2.50;86.20;;;;;;5050939;28;20041;-79
2023/02/07 10:43:46;;;;;;;13.50;8.80;;;-2.40;86.50;;;;;;5049447;28;20391;-78
2023/02/07 10:46:15;;;;;;;12.18;8.18;;;-2.20;86.40;;;;;;5051189;28;20064;-79
2023/02/07 10:48:41;;;;;;;13.38;9.63;;;-2.10;86.00;;;;;;5050808;28;20017;-77
2023/02/07 10:51:33;;;;;;;13.05;7.75;;;-2.10;85.70;;;;;;5032997;28;20033;-79
2023/02/07 10:54:11;;;;;;;13.32;8.75;;;-2.10;85.50;;;;;;5050668;28;20016;-77
2023/02/07 10:56:43;;;;;;;12.23;8.50;;;-2.10;85.40;;;;;;5050903;28;20053;-78
2023/02/07 10:59:50;;;;;;;13.75;7.88;;;-2.10;85.30;;;;;;5047391;28;20021;-78
2023/02/07 11:02:27;;;;;;;15.05;6.50;;;-2.20;85.30;;;;;;5050910;28;20115;-79
2023/02/07 11:04:55;;;;;;;10.73;6.72;;;-2.30;85.40;;;;;;5051416;28;20025;-78
2023/02/07 11:07:22;;;;;;;14.40;7.10;;;-2.40;85.30;;;;;;5050656;28;20021;-78
2023/02/07 11:09:48;;;;;;;12.10;9.13;;;-2.50;85.50;;;;;;5051043;28;20053;-78
2023/02/07 11:12:17;;;;;;;14.47;8.30;;;-2.50;85.80;;;;;;5033000;28;20037;-79
2023/02/07 11:15:04;;;;;;;13.35;8.35;;;-2.50;85.80;;;;;;5050019;28;20058;-79
2023/02/07 11:17:31;;;;;;;12.35;7.80;;;-2.50;85.80;;;;;;5050735;28;20051;-79
2023/02/07 11:20:05;;;;;;;13.48;7.60;;;-2.40;85.90;;;;;;5050814;28;20025;-78
2023/02/07 11:22:31;;;;;;;20.42;9.15;;;-2.30;86.00;;;;;;5051010;28;20036;-79
2023/02/07 11:25:03;;;;;;;13.07;8.68;;;-2.20;85.80;;;;;;5033218;28;20087;-79
2023/02/07 11:27:37;;;;;;;13.75;8.80;;;-2.10;85.40;;;;;;5051115;28;20464;-80
2023/02/07 11:30:08;;;;;;;17.33;7.95;;;-2.10;85.20;;;;;;5049995;28;20387;-79
2023/02/07 11:32:37;;;;;;;13.68;8.57;;;-2.10;85.10;;;;;;5050395;28;20040;-78
2023/02/07 11:35:08;;;;;;;11.07;6.88;;;-2.10;85.10;;;;;;5036588;28;20027;-79
2023/02/07 11:37:40;;;;;;;12.52;8.25;;;-2.20;84.80;;;;;;5054587;28;20044;-80
2023/02/07 11:40:18;;;;;;;11.73;8.15;;;-2.30;84.60;;;;;;5036765;28;20024;-80
2023/02/07 11:42:48;;;;;;;15.60;7.82;;;-2.40;84.70;;;;;;5054561;28;20029;-79
2023/02/07 11:45:20;;;;;;;12.98;8.45;;;-2.30;85.10;;;;;;5036191;28;20017;-79
2023/02/07 11:47:50;;;;;;;12.45;8.95;;;-2.30;85.00;;;;;;5054674;28;20025;-78
2023/02/07 11:50:24;;;;;;;14.73;6.82;;;-2.20;85.30;;;;;;5035859;28;20021;-79
2023/02/07 11:52:53;;;;;;;11.85;7.38;;;-2.20;85.00;;;;;;5053957;28;20029;-78
2023/02/07 11:55:26;;;;;;;16.95;9.05;;;-2.20;84.80;;;;;;5054291;28;20013;-79
2023/02/07 11:57:56;;;;;;;11.68;7.45;;;-2.30;85.00;;;;;;5053997;28;20029;-78
2023/02/07 12:00:29;;;;;;;13.95;9.15;;;-2.30;85.30;;;;;;5053882;28;20071;-79
2023/02/07 12:03:04;;;;;;;13.88;8.05;;;-2.30;85.30;;;;;;5054190;28;20384;-79
2023/02/07 12:05:37;;;;;;;13.93;8.30;;;-2.20;85.30;;;;;;5053922;28;20029;-77
2023/02/07 12:08:15;;;;;;;8.88;6.20;;;-2.30;85.20;;;;;;5014932;28;20040;-79
2023/02/07 12:10:46;;;;;;;16.17;9.85;;;-2.30;85.30;;;;;;5051529;28;20371;-77
2023/02/07 12:13:29;;;;;;;12.77;7.47;;;-2.30;85.60;;;;;;5053870;28;20017;-78
2023/02/07 12:16:16;;;;;;;14.55;8.68;;;-2.30;85.60;;;;;;5053582;28;20028;-78
2023/02/07 12:19:11;;;;;;;11.10;8.40;;;-2.30;85.50;;;;;;5035892;28;20021;-78
2023/02/07 12:22:01;;;;;;;11.52;8.85;;;-2.20;85.40;;;;;;5053397;28;20044;-80
2023/02/07 12:24:44;;;;;;;14.48;8.05;;;-2.20;85.60;;;;;;5052327;28;20017;-79
2023/02/07 12:27:13;;;;;;;11.27;7.55;;;-2.20;85.30;;;;;;5053985;28;20371;-79
2023/02/07 12:29:57;;;;;;;14.23;8.80;;;-2.20;85.30;;;;;;5053269;28;20064;-79
2023/02/07 12:32:52;;;;;;;11.43;8.50;;;-2.20;85.30;;;;;;5053472;28;20018;-78
2023/02/07 12:35:30;;;;;;;13.50;8.77;;;-2.20;85.30;;;;;;5053446;28;20131;-78
2023/02/07 12:38:21;;;;;;;12.35;8.65;;;-2.20;85.10;;;;;;5053572;28;20513;-78
2023/02/07 12:40:50;;;;;;;14.82;8.18;;;-2.30;84.90;;;;;;5046197;28;20391;-79
2023/02/07 12:43:26;;;;;;;13.38;7.82;;;-2.30;84.90;;;;;;5053359;28;20104;-79
2023/02/07 12:46:01;;;;;;;12.07;8.32;;;-2.40;85.20;;;;;;5053348;28;20470;-78
2023/02/07 12:49:04;;;;;;;12.65;8.18;;;-2.40;85.40;;;;;;5036140;28;20039;-77
2023/02/07 12:51:45;;;;;;;10.75;8.13;;;-2.40;85.60;;;;;;5054486;28;20393;-79
2023/02/07 12:54:29;;;;;;;17.40;10.65;;;-2.50;85.40;;;;;;5041781;28;20041;-78
2023/02/07 12:57:07;;;;;;;10.88;8.23;;;-2.50;85.70;;;;;;5053033;28;20059;-79
2023/02/07 12:59:44;;;;;;;11.50;7.15;;;-2.50;86.00;;;;;;5052933;28;20384;-79